createdAt,value
2023-08-04T00:00:43.561Z,12.00
2023-08-04T00:03:10.334Z,7.40
2023-08-04T00:05:37.059Z,7.82
2023-08-04T00:08:03.816Z,7.38
2023-08-04T00:10:30.527Z,6.70
2023-08-04T00:12:57.164Z,10.50
2023-08-04T00:15:24.018Z,11.60
2023-08-04T00:17:50.784Z,9.85
2023-08-04T00:20:17.524Z,8.10
2023-08-04T00:22:44.244Z,10.30
2023-08-04T00:25:11.376Z,9.75
2023-08-04T00:27:38.183Z,9.80
2023-08-04T00:30:07.630Z,9.07
2023-08-04T00:32:34.485Z,8.10
2023-08-04T00:35:02.157Z,5.80
2023-08-04T00:37:29.849Z,5.50
2023-08-04T00:39:56.547Z,9.43
2023-08-04T00:42:23.274Z,10.13
2023-08-04T00:44:49.932Z,12.98
2023-08-04T00:47:16.756Z,13.63
2023-08-04T00:49:46.342Z,12.55
2023-08-04T00:52:13.094Z,5.65
2023-08-04T00:54:39.883Z,12.32
2023-08-04T00:57:06.856Z,12.75
2023-08-04T00:59:33.850Z,9.07
2023-08-04T01:03:22.941Z,7.85
2023-08-04T01:06:21.196Z,10.90
2023-08-04T01:09:44.829Z,7.28
2023-08-04T01:12:41.343Z,6.78
2023-08-04T01:17:37.916Z,6.40
2023-08-04T01:20:05.751Z,11.95
2023-08-04T01:22:34.346Z,17.90
2023-08-04T01:25:01.843Z,14.30
2023-08-04T01:27:58.807Z,12.27
2023-08-04T01:30:28.248Z,11.65
2023-08-04T01:32:55.082Z,13.57
2023-08-04T01:35:24.107Z,13.40
2023-08-04T01:37:50.821Z,7.50
2023-08-04T01:40:17.594Z,12.20
2023-08-04T01:42:44.337Z,15.13
2023-08-04T01:45:11.243Z,11.02
2023-08-04T01:47:40.128Z,14.57
2023-08-04T01:50:10.137Z,15.18
2023-08-04T01:52:37.558Z,11.75
2023-08-04T01:55:04.975Z,16.70
2023-08-04T01:57:31.833Z,13.10
2023-08-04T01:59:58.610Z,15.23
2023-08-04T02:02:27.453Z,12.60
2023-08-04T02:04:54.356Z,23.35
2023-08-04T02:07:21.076Z,15.82
2023-08-04T02:09:47.897Z,13.73
2023-08-04T02:12:14.653Z,32.50
2023-08-04T02:14:41.495Z,21.10
2023-08-04T02:17:08.309Z,14.13
2023-08-04T02:19:35.094Z,21.50
2023-08-04T02:22:01.798Z,13.88
2023-08-04T02:24:28.530Z,18.55
2023-08-04T02:26:55.268Z,17.65
2023-08-04T02:29:22.272Z,18.20
2023-08-04T02:31:49.480Z,20.95
2023-08-04T02:34:16.453Z,24.05
2023-08-04T02:36:43.341Z,14.65
2023-08-04T02:39:10.032Z,13.35
2023-08-04T02:42:02.019Z,14.52
2023-08-04T02:44:28.859Z,13.23
2023-08-04T02:46:57.876Z,10.30
2023-08-04T02:49:25.139Z,15.07
2023-08-04T02:51:51.856Z,10.77
2023-08-04T02:54:18.600Z,18.52
2023-08-04T02:56:45.329Z,13.60
2023-08-04T02:59:12.108Z,13.60
2023-08-04T03:01:38.842Z,17.80
2023-08-04T03:04:05.616Z,17.85
2023-08-04T03:06:32.381Z,20.00
2023-08-04T03:08:59.088Z,19.90
2023-08-04T03:11:26.189Z,19.75
2023-08-04T03:13:52.925Z,18.13
2023-08-04T03:16:19.784Z,9.73
2023-08-04T03:18:46.628Z,14.15
2023-08-04T03:21:13.356Z,15.88
2023-08-04T03:23:40.139Z,11.32
2023-08-04T03:26:06.845Z,18.63
2023-08-04T03:28:33.642Z,14.70
2023-08-04T03:31:00.386Z,14.98
2023-08-04T03:33:27.119Z,20.35
2023-08-04T03:35:53.904Z,22.40
2023-08-04T03:38:20.627Z,18.95
2023-08-04T03:40:47.424Z,17.75
2023-08-04T03:43:14.150Z,17.88
2023-08-04T03:45:40.898Z,11.63
2023-08-04T03:48:07.646Z,17.08
2023-08-04T03:50:34.725Z,15.50
2023-08-04T03:53:01.564Z,11.93
2023-08-04T03:55:28.662Z,18.85
2023-08-04T03:57:55.425Z,15.73
2023-08-04T04:00:22.285Z,15.10
2023-08-04T04:02:49.868Z,14.25
2023-08-04T04:05:16.721Z,22.88
2023-08-04T04:07:43.462Z,20.55
2023-08-04T04:10:10.533Z,24.63
2023-08-04T04:12:37.499Z,20.33
2023-08-04T04:15:08.140Z,16.25
2023-08-04T04:17:36.291Z,14.10
2023-08-04T04:20:03.935Z,17.52
2023-08-04T04:22:31.718Z,16.67
2023-08-04T04:24:58.518Z,16.10
2023-08-04T04:27:25.787Z,18.73
2023-08-04T04:29:52.670Z,19.02
2023-08-04T04:32:19.433Z,14.07
2023-08-04T04:34:46.866Z,17.52
2023-08-04T04:37:13.600Z,16.77
2023-08-04T04:39:40.264Z,20.05
2023-08-04T04:42:07.500Z,17.23
2023-08-04T04:44:34.208Z,17.77
2023-08-04T04:47:00.929Z,14.98
2023-08-04T04:49:27.593Z,16.10
2023-08-04T04:51:54.409Z,16.02
2023-08-04T04:54:21.269Z,16.60
2023-08-04T04:56:49.631Z,11.77
2023-08-04T04:59:16.508Z,18.52
2023-08-04T05:01:44.322Z,21.00
2023-08-04T05:04:11.238Z,11.50
2023-08-04T05:06:38.036Z,12.52
2023-08-04T05:09:04.873Z,17.67
2023-08-04T05:11:31.897Z,17.88
2023-08-04T05:13:58.736Z,18.75
2023-08-04T05:16:25.553Z,17.73
2023-08-04T05:18:52.435Z,14.30
2023-08-04T05:21:19.213Z,20.60
2023-08-04T05:23:45.924Z,10.77
2023-08-04T05:26:12.658Z,14.15
2023-08-04T05:28:39.415Z,16.77
2023-08-04T05:31:06.269Z,12.52
2023-08-04T05:33:33.901Z,19.95
2023-08-04T05:36:01.314Z,12.80
2023-08-04T05:38:29.449Z,15.05
2023-08-04T05:41:01.065Z,11.20
2023-08-04T05:43:27.892Z,17.63
2023-08-04T05:45:55.195Z,15.23
2023-08-04T05:48:22.812Z,14.77
2023-08-04T05:50:49.693Z,18.42
2023-08-04T05:53:16.461Z,11.95
2023-08-04T05:55:43.278Z,16.25
2023-08-04T05:58:09.991Z,11.15
2023-08-04T06:00:36.857Z,10.95
2023-08-04T06:03:05.395Z,17.02
2023-08-04T06:05:32.383Z,16.13
2023-08-04T06:07:59.158Z,15.73
2023-08-04T06:10:26.462Z,11.25
2023-08-04T06:12:53.247Z,11.98
2023-08-04T06:15:20.283Z,12.68
2023-08-04T06:17:48.408Z,15.38
2023-08-04T06:20:15.354Z,8.95
2023-08-04T06:22:42.145Z,13.40
2023-08-04T06:25:09.469Z,17.48
2023-08-04T06:27:36.166Z,12.68
2023-08-04T06:30:03.098Z,18.48
2023-08-04T06:32:29.984Z,14.35
2023-08-04T06:34:57.328Z,11.40
2023-08-04T06:37:24.769Z,15.00
2023-08-04T06:39:51.909Z,10.57
2023-08-04T06:42:19.572Z,13.13
2023-08-04T06:44:47.087Z,12.50
2023-08-04T06:47:14.207Z,13.88
2023-08-04T06:49:46.884Z,16.88
2023-08-04T06:52:13.628Z,10.40
2023-08-04T06:54:40.367Z,12.32
2023-08-04T06:57:07.348Z,14.20
2023-08-04T06:59:34.582Z,13.80
2023-08-04T07:02:01.522Z,9.50
2023-08-04T07:04:28.614Z,11.80
2023-08-04T07:06:57.485Z,12.23
2023-08-04T07:09:24.639Z,10.20
2023-08-04T07:11:51.406Z,12.15
2023-08-04T07:14:18.171Z,14.15
2023-08-04T07:16:47.521Z,16.17
2023-08-04T07:19:16.255Z,12.95
2023-08-04T07:21:44.960Z,9.85
2023-08-04T07:24:12.491Z,17.95
2023-08-04T07:26:39.485Z,9.90
2023-08-04T07:29:06.273Z,12.63
2023-08-04T07:31:34.326Z,13.20
2023-08-04T07:34:01.928Z,10.32
2023-08-04T07:36:28.749Z,9.50
2023-08-04T07:38:55.715Z,18.45
2023-08-04T07:41:25.646Z,13.15
2023-08-04T07:43:53.365Z,13.98
2023-08-04T07:46:26.203Z,7.60
2023-08-04T07:48:54.423Z,13.02
2023-08-04T07:51:22.456Z,12.52
2023-08-04T07:53:49.233Z,15.75
2023-08-04T07:56:16.089Z,11.93
2023-08-04T07:58:42.906Z,10.32
2023-08-04T08:01:09.897Z,12.35
2023-08-04T08:03:37.776Z,10.75
2023-08-04T08:06:04.779Z,12.60
2023-08-04T08:08:32.458Z,13.25
2023-08-04T08:11:00.197Z,9.48
2023-08-04T08:13:27.034Z,10.95
2023-08-04T08:15:53.859Z,10.93
2023-08-04T08:18:20.657Z,16.10
2023-08-04T08:20:47.464Z,9.00
2023-08-04T08:23:14.260Z,11.93
2023-08-04T08:25:42.437Z,13.93
2023-08-04T08:28:09.655Z,11.73
2023-08-04T08:30:36.792Z,8.50
2023-08-04T08:33:03.907Z,10.10
2023-08-04T08:35:31.105Z,6.30
2023-08-04T08:37:58.184Z,8.70
2023-08-04T08:40:26.545Z,11.25
2023-08-04T08:42:57.806Z,13.20
2023-08-04T08:45:28.851Z,8.13
2023-08-04T08:47:57.621Z,8.15
2023-08-04T08:50:27.922Z,10.10
2023-08-04T08:53:24.341Z,10.40
2023-08-04T08:55:51.772Z,4.07
2023-08-04T08:58:19.512Z,9.30
2023-08-04T09:00:47.024Z,11.60
2023-08-04T09:03:14.176Z,9.98
2023-08-04T09:05:41.027Z,5.05
2023-08-04T09:08:08.359Z,6.22
2023-08-04T09:10:38.886Z,3.50
2023-08-04T09:13:10.065Z,8.88
2023-08-04T09:15:52.766Z,8.77
2023-08-04T09:18:34.844Z,4.10
2023-08-04T09:21:12.533Z,8.77
2023-08-04T09:23:47.671Z,9.00
2023-08-04T09:26:15.201Z,4.97
2023-08-04T09:28:42.165Z,6.30
2023-08-04T09:31:13.897Z,4.63
2023-08-04T09:33:45.094Z,5.28
2023-08-04T09:36:17.233Z,4.22
2023-08-04T09:38:44.427Z,7.38
2023-08-04T09:41:14.007Z,5.35
2023-08-04T09:43:50.869Z,8.98
2023-08-04T09:46:18.908Z,3.83
2023-08-04T09:48:47.671Z,4.32
2023-08-04T09:51:21.946Z,6.07
2023-08-04T09:53:55.264Z,6.63
2023-08-04T09:56:29.847Z,6.25
2023-08-04T09:58:57.213Z,6.55
2023-08-04T10:01:24.493Z,6.60
2023-08-04T10:03:58.440Z,6.13
2023-08-04T10:06:27.029Z,7.10
2023-08-04T10:08:56.651Z,7.47
2023-08-04T10:11:24.535Z,5.43
2023-08-04T10:13:55.088Z,6.80
2023-08-04T10:16:35.385Z,7.35
2023-08-04T10:19:05.188Z,7.18
2023-08-04T10:21:43.083Z,6.05
2023-08-04T10:24:12.618Z,6.82
2023-08-04T10:26:48.154Z,7.63
2023-08-04T10:29:15.278Z,8.20
2023-08-04T10:31:51.988Z,3.90
2023-08-04T10:34:19.043Z,4.25
2023-08-04T10:37:19.393Z,4.00
2023-08-04T10:39:58.053Z,3.00
2023-08-04T10:42:27.829Z,4.47
2023-08-04T10:45:06.511Z,4.35
2023-08-04T10:47:45.721Z,7.35
2023-08-04T10:50:28.637Z,4.63
2023-08-04T10:52:55.363Z,6.40
2023-08-04T10:55:22.128Z,5.38
2023-08-04T10:57:48.839Z,6.55
2023-08-04T11:00:16.247Z,2.47
2023-08-04T11:02:43.178Z,8.43
2023-08-04T11:05:12.812Z,3.33
2023-08-04T11:07:47.866Z,7.97
2023-08-04T11:10:15.044Z,3.15
2023-08-04T11:12:42.076Z,5.00
2023-08-04T11:15:12.348Z,1.80
2023-08-04T11:17:41.344Z,4.55
2023-08-04T11:22:47.855Z,3.33
2023-08-04T11:25:16.784Z,4.35
2023-08-04T11:27:43.881Z,3.08
2023-08-04T11:30:13.570Z,2.75
2023-08-04T11:32:40.440Z,4.63
2023-08-04T11:35:07.823Z,4.97
2023-08-04T11:37:34.663Z,4.20
2023-08-04T11:40:01.394Z,3.50
2023-08-04T11:42:28.254Z,6.38
2023-08-04T11:44:55.039Z,4.00
2023-08-04T11:47:25.720Z,2.33
2023-08-04T11:49:53.852Z,3.97
2023-08-04T11:52:23.820Z,4.30
2023-08-04T11:54:54.428Z,3.90
2023-08-04T11:57:22.189Z,2.97
2023-08-04T11:59:50.646Z,7.03
2023-08-04T12:02:17.843Z,3.25
2023-08-04T12:04:45.584Z,2.33
2023-08-04T12:07:13.689Z,2.55
2023-08-04T12:09:47.144Z,3.53
2023-08-04T12:12:13.955Z,2.55
2023-08-04T12:14:55.600Z,2.90
2023-08-04T12:17:44.455Z,2.50
2023-08-04T12:20:14.367Z,2.22
2023-08-04T12:22:43.676Z,2.63
2023-08-04T12:25:12.579Z,2.20
2023-08-04T12:27:40.875Z,3.20
2023-08-04T12:30:08.868Z,5.03
2023-08-04T12:32:35.793Z,2.25
2023-08-04T12:35:02.750Z,3.53
2023-08-04T12:37:29.532Z,1.60
2023-08-04T12:39:57.607Z,3.92
2023-08-04T12:42:25.787Z,3.15
2023-08-04T12:44:53.082Z,2.83
2023-08-04T12:47:19.911Z,4.72
2023-08-04T12:49:46.865Z,1.80
2023-08-04T12:52:13.706Z,4.60
2023-08-04T12:54:40.408Z,3.97
2023-08-04T12:57:07.672Z,1.92
2023-08-04T12:59:34.630Z,2.38
2023-08-04T13:02:01.460Z,1.30
2023-08-04T13:04:28.285Z,1.33
2023-08-04T13:06:55.061Z,3.80
2023-08-04T13:09:22.214Z,1.63
2023-08-04T13:11:49.540Z,5.45
2023-08-04T13:14:16.687Z,2.75
2023-08-04T13:16:44.266Z,1.67
2023-08-04T13:19:11.440Z,2.80
2023-08-04T13:21:38.344Z,3.25
2023-08-04T13:24:05.604Z,5.70
2023-08-04T13:26:32.344Z,6.57
2023-08-04T13:28:59.232Z,2.25
2023-08-04T13:31:26.095Z,1.98
2023-08-04T13:33:52.891Z,3.08
2023-08-04T13:36:19.769Z,1.85
2023-08-04T13:38:49.440Z,1.33
2023-08-04T13:41:16.218Z,2.47
2023-08-04T13:43:45.068Z,1.92
2023-08-04T13:46:12.252Z,1.73
2023-08-04T13:48:39.673Z,1.65
2023-08-04T13:51:20.850Z,1.20
2023-08-04T13:53:52.751Z,1.55
2023-08-04T13:56:19.624Z,2.25
2023-08-04T13:58:46.604Z,2.17
2023-08-04T14:01:13.545Z,1.55
2023-08-04T14:03:40.371Z,1.95
2023-08-04T14:06:07.256Z,2.30
2023-08-04T14:08:34.091Z,1.90
2023-08-04T14:11:00.919Z,3.78
2023-08-04T14:13:27.749Z,2.65
2023-08-04T14:15:54.489Z,3.13
2023-08-04T14:18:21.561Z,2.20
2023-08-04T14:20:48.648Z,5.40
2023-08-04T14:23:15.646Z,1.90
2023-08-04T14:25:47.360Z,4.10
2023-08-04T14:28:17.998Z,3.25
2023-08-04T14:30:46.580Z,3.33
2023-08-04T14:33:13.574Z,3.67
2023-08-04T14:35:41.590Z,2.13
2023-08-04T14:38:08.444Z,2.55
2023-08-04T14:40:35.222Z,3.15
2023-08-04T14:43:02.008Z,4.53
2023-08-04T14:45:31.691Z,2.95
2023-08-04T14:47:58.529Z,2.22
2023-08-04T14:50:25.672Z,1.83
2023-08-04T14:52:52.457Z,13.50
2023-08-04T14:55:19.096Z,0.05
2023-08-04T14:57:45.858Z,0.00
2023-08-04T15:00:13.063Z,0.00
2023-08-04T15:02:39.966Z,0.00
2023-08-04T15:05:07.624Z,0.10
2023-08-04T15:07:34.530Z,0.00
2023-08-04T15:10:01.364Z,0.00
2023-08-04T15:12:28.176Z,0.00
2023-08-04T15:14:55.520Z,0.00
2023-08-04T15:17:22.405Z,0.05
2023-08-04T15:19:49.221Z,0.00
2023-08-04T15:22:15.942Z,0.00
2023-08-04T15:24:42.651Z,0.00
2023-08-04T15:27:09.339Z,0.00
2023-08-04T15:29:36.070Z,0.00
2023-08-04T15:32:03.224Z,0.00
2023-08-04T15:34:30.248Z,0.00
2023-08-04T15:36:57.007Z,0.00
2023-08-04T15:39:23.712Z,0.00
2023-08-04T15:41:50.804Z,0.00
2023-08-04T15:44:17.546Z,0.00
2023-08-04T15:46:44.321Z,0.00
2023-08-04T15:49:11.138Z,0.00
2023-08-04T15:51:37.809Z,0.00
2023-08-04T15:54:04.745Z,0.00
2023-08-04T15:56:31.565Z,0.00
2023-08-04T15:58:58.312Z,0.00
2023-08-04T16:01:25.469Z,0.00
2023-08-04T16:03:54.860Z,0.00
2023-08-04T16:06:22.259Z,0.00
2023-08-04T16:08:49.010Z,0.00
2023-08-04T16:11:15.860Z,0.00
2023-08-04T16:13:43.027Z,0.00
2023-08-04T16:16:10.756Z,0.00
2023-08-04T16:18:40.532Z,0.00
2023-08-04T16:21:08.333Z,0.00
2023-08-04T16:23:36.042Z,0.00
2023-08-04T16:26:03.149Z,0.00
2023-08-04T16:28:32.457Z,0.00
2023-08-04T16:31:00.115Z,0.00
2023-08-04T16:33:27.048Z,0.00
2023-08-04T16:35:54.301Z,0.00
2023-08-04T16:38:21.074Z,0.00
2023-08-04T16:40:47.817Z,0.00
2023-08-04T16:43:14.712Z,0.00
2023-08-04T16:45:41.608Z,0.00
2023-08-04T16:48:08.416Z,0.98
2023-08-04T16:50:36.017Z,0.00
2023-08-04T16:53:04.006Z,0.00
2023-08-04T16:55:33.889Z,0.00
2023-08-04T16:58:01.988Z,0.00
2023-08-04T17:00:28.805Z,0.00
2023-08-04T17:02:55.630Z,0.00
2023-08-04T17:05:22.992Z,0.00
2023-08-04T17:07:50.896Z,0.00
2023-08-04T17:10:17.768Z,0.00
2023-08-04T17:12:44.514Z,0.00
2023-08-04T17:15:14.575Z,0.00
2023-08-04T17:17:49.691Z,0.00
2023-08-04T17:20:16.558Z,0.00
2023-08-04T17:22:43.283Z,0.00
2023-08-04T17:25:10.042Z,0.00
2023-08-04T17:27:36.832Z,0.00
2023-08-04T17:30:04.699Z,0.00
2023-08-04T17:32:33.555Z,0.00
2023-08-04T17:35:00.393Z,0.00
2023-08-04T17:37:27.402Z,0.00
2023-08-04T17:39:54.190Z,0.00
2023-08-04T17:42:20.893Z,0.00
2023-08-04T17:44:47.630Z,0.00
2023-08-04T17:47:14.367Z,0.00
2023-08-04T17:49:41.087Z,0.00
2023-08-04T17:52:09.834Z,0.00
2023-08-04T17:54:38.082Z,0.00
2023-08-04T17:57:05.993Z,0.00
2023-08-04T17:59:32.705Z,0.00
2023-08-04T18:01:59.609Z,0.00
2023-08-04T18:04:26.420Z,0.00
2023-08-04T18:06:53.136Z,0.00
2023-08-04T18:09:20.194Z,0.00
2023-08-04T18:11:48.017Z,0.00
2023-08-04T18:14:14.818Z,0.00
2023-08-04T18:16:41.639Z,0.00
2023-08-04T18:19:08.350Z,0.00
2023-08-04T18:21:35.095Z,0.00
2023-08-04T18:24:01.809Z,0.00
2023-08-04T18:26:28.597Z,0.00
2023-08-04T18:28:55.641Z,0.00
2023-08-04T18:31:22.411Z,0.00
2023-08-04T18:33:49.441Z,0.00
2023-08-04T18:36:16.147Z,0.00
2023-08-04T18:38:42.894Z,0.00
2023-08-04T18:41:09.620Z,0.00
2023-08-04T18:43:36.411Z,0.00
2023-08-04T18:46:03.726Z,0.00
2023-08-04T18:48:30.701Z,0.00
2023-08-04T18:50:57.514Z,0.00
2023-08-04T18:53:24.266Z,0.00
2023-08-04T18:55:51.477Z,0.00
2023-08-04T18:58:18.547Z,0.00
2023-08-04T19:00:45.409Z,0.00
2023-08-04T19:03:12.494Z,0.00
2023-08-04T19:05:39.341Z,0.00
2023-08-04T19:08:06.064Z,0.00
2023-08-04T19:10:32.844Z,0.20
2023-08-04T19:13:00.521Z,0.00
2023-08-04T19:15:27.296Z,0.00
2023-08-04T19:17:54.124Z,0.00
2023-08-04T19:20:20.920Z,0.00
2023-08-04T19:22:47.772Z,0.00
2023-08-04T19:25:14.641Z,0.00
2023-08-04T19:27:41.554Z,0.00
2023-08-04T19:30:09.411Z,0.00
2023-08-04T19:32:36.474Z,0.00
2023-08-04T19:35:03.472Z,0.17
2023-08-04T19:37:30.157Z,0.00
2023-08-04T19:39:56.830Z,0.00
2023-08-04T19:42:23.648Z,0.00
2023-08-04T19:44:50.400Z,0.00
2023-08-04T19:47:17.164Z,0.00
2023-08-04T19:49:44.133Z,0.00
2023-08-04T19:52:10.911Z,0.00
2023-08-04T19:54:41.002Z,0.00
2023-08-04T19:57:07.750Z,0.00
2023-08-04T19:59:34.404Z,0.00
2023-08-04T20:02:01.225Z,0.00
2023-08-04T20:04:28.097Z,0.00
2023-08-04T20:06:54.841Z,0.00
2023-08-04T20:09:21.927Z,0.00
2023-08-04T20:11:48.752Z,0.00
2023-08-04T20:14:15.451Z,0.00
2023-08-04T20:16:42.193Z,0.00
2023-08-04T20:19:08.950Z,0.00
2023-08-04T20:21:35.772Z,0.00
2023-08-04T20:24:02.511Z,0.00
2023-08-04T20:26:29.331Z,0.00
2023-08-04T20:28:56.531Z,0.00
2023-08-04T20:31:23.362Z,0.00
2023-08-04T20:33:55.492Z,0.00
2023-08-04T20:36:25.512Z,0.00
2023-08-04T20:38:52.309Z,0.00
2023-08-04T20:41:19.106Z,0.00
2023-08-04T20:43:46.985Z,0.00
2023-08-04T20:46:16.271Z,0.00
2023-08-04T20:48:42.952Z,0.00
2023-08-04T20:51:09.759Z,0.00
2023-08-04T20:53:38.906Z,0.00
2023-08-04T20:56:06.626Z,0.00
2023-08-04T20:58:34.121Z,0.00
2023-08-04T21:01:10.720Z,0.00
2023-08-04T21:03:40.239Z,0.00
2023-08-04T21:06:08.123Z,0.00
2023-08-04T21:08:35.405Z,0.00
2023-08-04T21:11:02.832Z,0.00
2023-08-04T21:13:30.446Z,0.00
2023-08-04T21:15:57.337Z,0.00
2023-08-04T21:18:24.168Z,0.00
2023-08-04T21:20:50.912Z,0.00
2023-08-04T21:23:25.309Z,0.00
2023-08-04T21:25:53.565Z,0.00
2023-08-04T21:28:20.432Z,0.00
2023-08-04T21:30:52.399Z,0.00
2023-08-04T21:33:19.212Z,0.00
2023-08-04T21:35:45.961Z,0.00
2023-08-04T21:38:12.725Z,0.00
2023-08-04T21:40:39.624Z,0.00
2023-08-04T21:43:06.423Z,0.00
2023-08-04T21:45:33.251Z,0.00
2023-08-04T21:48:00.105Z,0.00
2023-08-04T21:50:31.032Z,0.00
2023-08-04T21:52:57.736Z,0.00
2023-08-04T21:55:24.592Z,0.00
2023-08-04T21:57:51.864Z,0.00
2023-08-04T22:00:23.542Z,0.00
2023-08-04T22:02:51.603Z,0.00
2023-08-04T22:05:19.887Z,0.00
2023-08-04T22:07:46.947Z,0.10
2023-08-04T22:10:14.194Z,0.00
2023-08-04T22:12:41.046Z,0.00
2023-08-04T22:15:10.032Z,0.00
2023-08-04T22:17:37.239Z,0.00
2023-08-04T22:20:04.819Z,0.35
2023-08-04T22:22:31.540Z,0.00
2023-08-04T22:24:58.238Z,0.00
2023-08-04T22:27:24.906Z,0.00
2023-08-04T22:29:51.660Z,0.00
2023-08-04T22:32:18.362Z,0.00
2023-08-04T22:34:45.055Z,0.00
2023-08-04T22:37:11.770Z,0.00
2023-08-04T22:39:38.506Z,0.00
2023-08-04T22:42:05.434Z,0.00
2023-08-04T22:44:32.161Z,0.00
2023-08-04T22:46:58.939Z,0.00
2023-08-04T22:49:25.732Z,0.00
2023-08-04T22:51:52.469Z,0.00
2023-08-04T22:54:32.234Z,0.00
2023-08-04T22:57:00.723Z,0.00
2023-08-04T22:59:27.475Z,0.00
2023-08-04T23:01:54.280Z,0.00
2023-08-04T23:04:20.998Z,0.00
2023-08-04T23:06:48.336Z,0.00
2023-08-04T23:09:15.428Z,0.00
2023-08-04T23:11:42.134Z,0.00
2023-08-04T23:14:08.818Z,0.00
2023-08-04T23:16:35.540Z,0.00
2023-08-04T23:19:02.276Z,0.00
2023-08-04T23:21:28.980Z,0.00
2023-08-04T23:23:55.706Z,0.00
2023-08-04T23:26:22.478Z,0.00
2023-08-04T23:28:49.216Z,0.00
2023-08-04T23:31:15.953Z,0.00
2023-08-04T23:33:42.651Z,0.00
2023-08-04T23:36:09.524Z,0.00
2023-08-04T23:38:36.301Z,0.00
2023-08-04T23:41:03.372Z,0.00
2023-08-04T23:43:30.116Z,0.00
2023-08-04T23:45:56.967Z,0.00
2023-08-04T23:48:23.912Z,0.00
2023-08-04T23:50:50.596Z,0.00
2023-08-04T23:53:19.577Z,0.00
2023-08-04T23:55:46.285Z,0.00
2023-08-04T23:58:12.985Z,0.00
